createdAt,value
2023-04-23T08:20:31.693Z,33.10
2023-04-23T08:25:35.884Z,29.70
2023-04-23T08:30:40.122Z,27.10
2023-04-23T08:35:46.122Z,25.30
2023-04-23T08:40:50.477Z,24.20
2023-04-23T08:45:54.535Z,23.20
2023-04-23T08:51:00.431Z,23.30
2023-04-23T08:56:05.673Z,25.10
2023-04-23T09:01:09.754Z,28.30
2023-04-23T09:06:15.807Z,28.80
2023-04-23T09:11:19.992Z,29.40
2023-04-23T09:16:24.075Z,29.00
2023-04-23T09:21:30.934Z,31.50
2023-04-23T09:26:35.523Z,34.60
2023-04-23T09:31:39.578Z,32.60
2023-04-23T09:36:45.602Z,31.10
2023-04-23T09:41:49.716Z,30.00
2023-04-23T09:46:53.734Z,29.10
2023-04-23T09:51:59.796Z,28.30
2023-04-23T09:57:05.430Z,27.60
2023-04-23T10:02:10.227Z,27.40
2023-04-23T10:07:20.243Z,27.10
2023-04-23T10:17:31.888Z,25.80
2023-04-23T10:27:58.870Z,25.10
2023-04-23T10:33:03.055Z,24.70
2023-04-23T10:38:07.209Z,24.40
2023-04-23T10:43:13.178Z,23.80
2023-04-23T10:48:17.380Z,23.60
2023-04-23T10:53:21.903Z,23.70
2023-04-23T10:58:28.997Z,24.00
2023-04-23T11:03:34.436Z,24.00
2023-04-23T11:08:39.385Z,23.70
2023-04-23T11:13:46.922Z,23.60
2023-04-23T11:19:11.899Z,23.80
2023-04-23T11:24:16.519Z,23.80
2023-04-23T11:29:21.718Z,23.70
2023-04-23T11:34:27.779Z,23.60
2023-04-23T11:39:32.022Z,23.40
2023-04-23T11:44:36.556Z,23.10
2023-04-23T11:49:45.064Z,23.00
2023-04-23T11:54:49.692Z,22.90
2023-04-23T11:59:56.226Z,22.80
2023-04-23T12:05:09.721Z,22.80
2023-04-23T12:10:19.648Z,22.80
2023-04-23T12:15:23.994Z,22.70
2023-04-23T12:20:30.068Z,22.50
2023-04-23T12:25:34.871Z,22.30
2023-04-23T12:30:46.214Z,21.90
2023-04-23T12:35:54.335Z,21.60
2023-04-23T12:41:01.319Z,21.50
2023-04-23T12:46:05.646Z,21.40
2023-04-23T12:51:11.946Z,21.40
2023-04-23T12:56:16.329Z,21.40
2023-04-23T13:01:20.451Z,21.40
2023-04-23T13:06:28.731Z,21.90
2023-04-23T13:11:32.927Z,22.10
2023-04-23T13:16:37.117Z,22.20
2023-04-23T13:21:43.151Z,22.40
2023-04-23T13:26:47.546Z,22.60
2023-04-23T13:31:51.890Z,22.70
2023-04-23T13:36:57.946Z,22.90
2023-04-23T13:42:09.513Z,23.00
2023-04-23T13:47:14.289Z,22.90
2023-04-23T13:52:20.638Z,22.60
2023-04-23T13:57:25.955Z,22.30
2023-04-23T14:02:30.848Z,21.90
2023-04-23T14:07:37.408Z,21.50
2023-04-23T14:12:41.667Z,21.30
2023-04-23T14:17:47.014Z,21.40
2023-04-23T14:22:58.337Z,21.40
2023-04-23T14:28:05.187Z,21.30
2023-04-23T14:33:09.317Z,21.00
2023-04-23T14:38:15.713Z,20.70
2023-04-23T14:43:19.947Z,20.20
2023-04-23T14:48:24.010Z,20.00
2023-04-23T14:53:30.187Z,19.80
2023-04-23T14:58:34.196Z,19.60
2023-04-23T15:03:38.420Z,19.60
2023-04-23T15:08:44.882Z,19.40
2023-04-23T15:13:54.506Z,19.40
2023-04-23T15:18:58.911Z,19.30
2023-04-23T15:24:05.506Z,19.10
2023-04-23T15:29:09.617Z,19.00
2023-04-23T15:34:13.661Z,19.00
2023-04-23T15:39:19.690Z,18.90
2023-04-23T15:44:24.692Z,18.80
2023-04-23T15:49:28.766Z,18.60
2023-04-23T15:54:34.813Z,18.50
2023-04-23T15:59:39.204Z,18.50
2023-04-23T16:04:43.922Z,18.40
2023-04-23T16:09:50.816Z,18.20
2023-04-23T16:14:54.974Z,18.10
2023-04-23T16:19:59.044Z,17.80
2023-04-23T16:25:05.793Z,17.40
2023-04-23T16:30:11.910Z,16.80
2023-04-23T16:35:16.089Z,16.30
2023-04-23T16:40:22.355Z,15.90
2023-04-23T16:45:26.764Z,15.70
2023-04-23T16:50:30.888Z,15.40
2023-04-23T16:55:37.669Z,15.10
2023-04-23T17:00:41.684Z,14.90
2023-04-23T17:05:45.806Z,14.80
2023-04-23T17:10:51.950Z,14.80
2023-04-23T17:15:56.047Z,14.80
2023-04-23T17:21:00.206Z,14.80
2023-04-23T17:26:06.250Z,14.80
2023-04-23T17:31:10.773Z,14.80
2023-04-23T17:36:15.315Z,14.70
2023-04-23T17:41:22.306Z,14.60
2023-04-23T17:46:26.488Z,14.50
2023-04-23T17:51:30.944Z,14.50
2023-04-23T17:56:37.187Z,14.40
2023-04-23T18:01:41.239Z,14.30
2023-04-23T18:06:45.526Z,14.30
2023-04-23T18:11:51.805Z,14.30
2023-04-23T18:16:55.987Z,14.30
2023-04-23T18:22:01.724Z,14.30
2023-04-23T18:27:07.768Z,14.30
2023-04-23T18:32:15.861Z,14.40
2023-04-23T18:37:40.268Z,14.40
2023-04-23T18:42:46.296Z,14.40
2023-04-23T18:47:53.010Z,14.30
2023-04-23T18:52:57.162Z,14.30
2023-04-23T18:58:03.688Z,14.40
2023-04-23T19:03:23.462Z,14.40
2023-04-23T19:08:31.013Z,14.50
2023-04-23T19:13:36.974Z,14.50
2023-04-23T19:18:40.962Z,14.40
2023-04-23T19:23:45.081Z,14.50
2023-04-23T19:28:51.029Z,14.40
2023-04-23T19:33:55.049Z,14.50
2023-04-23T19:38:59.285Z,14.40
2023-04-23T19:44:05.358Z,14.30
2023-04-23T19:49:09.483Z,14.20
2023-04-23T19:54:13.481Z,14.10
2023-04-23T19:59:20.436Z,13.90
2023-04-23T20:04:24.591Z,13.80
2023-04-23T20:09:29.041Z,13.70
2023-04-23T20:14:35.297Z,13.70
2023-04-23T20:19:39.293Z,13.80
2023-04-23T20:24:45.879Z,13.80
2023-04-23T20:29:52.075Z,13.80
2023-04-23T20:34:57.451Z,13.80
2023-04-23T20:40:01.716Z,13.70
2023-04-23T20:45:12.618Z,13.70
2023-04-23T20:50:16.953Z,13.60
2023-04-23T20:55:21.520Z,13.60
2023-04-23T21:00:28.847Z,13.60
